createdAt,value
2019-04-07T00:01:39.266Z,72.05
2019-04-07T00:04:07.698Z,66.47
2019-04-07T00:06:35.473Z,68.68
2019-04-07T00:09:03.882Z,68.80
2019-04-07T00:11:31.260Z,69.18
2019-04-07T00:13:59.249Z,68.37
2019-04-07T00:16:27.308Z,67.20
2019-04-07T00:18:55.685Z,70.80
2019-04-07T00:21:23.239Z,70.90
2019-04-07T00:23:51.004Z,68.75
2019-04-07T00:26:19.168Z,64.00
2019-04-07T00:28:47.167Z,64.47
2019-04-07T00:31:15.021Z,65.87
2019-04-07T00:33:43.749Z,65.18
2019-04-07T00:36:11.286Z,62.38
2019-04-07T00:38:39.391Z,63.40
2019-04-07T00:41:07.923Z,66.07
2019-04-07T00:43:35.486Z,60.97
2019-04-07T00:46:03.566Z,62.92
2019-04-07T00:48:31.330Z,60.55
2019-04-07T00:51:00.234Z,63.63
2019-04-07T00:53:27.761Z,66.82
2019-04-07T00:55:56.256Z,62.28
2019-04-07T00:58:24.638Z,66.95
2019-04-07T01:00:53.023Z,63.67
2019-04-07T01:03:20.250Z,68.40
2019-04-07T01:05:48.408Z,62.45
2019-04-07T01:08:16.187Z,64.12
2019-04-07T01:10:43.955Z,61.58
2019-04-07T01:13:12.122Z,62.55
2019-04-07T01:15:40.596Z,64.28
2019-04-07T01:18:07.989Z,61.53
2019-04-07T01:20:35.851Z,61.60
2019-04-07T01:23:03.966Z,56.95
2019-04-07T01:25:31.683Z,63.33
2019-04-07T01:27:59.752Z,58.63
2019-04-07T01:30:27.836Z,62.92
2019-04-07T01:32:56.333Z,58.53
2019-04-07T01:35:23.980Z,65.90
2019-04-07T01:37:52.472Z,61.05
2019-04-07T01:40:21.002Z,59.38
2019-04-07T01:43:20.283Z,61.65
2019-04-07T01:46:08.893Z,60.83
2019-04-07T01:49:13.940Z,58.50
2019-04-07T01:52:10.866Z,59.63
2019-04-07T01:54:49.408Z,56.78
2019-04-07T01:57:31.048Z,58.70
2019-04-07T02:00:17.208Z,56.95
2019-04-07T02:03:07.519Z,55.97
2019-04-07T02:05:59.185Z,56.15
2019-04-07T02:08:34.210Z,57.38
2019-04-07T02:11:21.188Z,53.42
2019-04-07T02:14:02.103Z,54.40
2019-04-07T02:16:58.623Z,57.20
2019-04-07T02:19:40.465Z,57.58
2019-04-07T02:22:26.453Z,56.67
2019-04-07T02:25:07.692Z,62.65
2019-04-07T02:27:54.565Z,59.28
2019-04-07T02:30:39.294Z,59.45
2019-04-07T02:33:28.837Z,56.97
2019-04-07T02:36:21.401Z,58.50
2019-04-07T02:39:19.420Z,59.38
2019-04-07T02:42:11.591Z,57.60
2019-04-07T02:44:57.825Z,61.08
2019-04-07T02:47:36.138Z,58.58
2019-04-07T02:50:30.130Z,53.50
2019-04-07T02:53:05.707Z,54.97
2019-04-07T02:55:55.096Z,55.28
2019-04-07T02:58:28.107Z,54.22
2019-04-07T03:01:04.446Z,61.08
2019-04-07T03:03:44.604Z,57.53
2019-04-07T03:06:47.721Z,59.28
2019-04-07T03:09:33.100Z,55.88
2019-04-07T03:12:37.329Z,56.95
2019-04-07T03:15:15.019Z,56.25
2019-04-07T03:18:20.195Z,56.83
2019-04-07T03:20:54.183Z,60.67
2019-04-07T03:23:31.725Z,56.78
2019-04-07T03:26:18.354Z,55.10
2019-04-07T03:28:55.763Z,52.97
2019-04-07T03:31:32.170Z,55.72
2019-04-07T03:34:14.836Z,54.67
2019-04-07T03:37:21.320Z,59.75
2019-04-07T03:39:49.293Z,57.50
2019-04-07T03:42:38.858Z,52.45
2019-04-07T03:45:32.726Z,55.12
2019-04-07T03:48:19.552Z,59.70
2019-04-07T03:51:06.887Z,60.38
2019-04-07T03:53:54.068Z,56.72
2019-04-07T03:56:49.947Z,57.25
2019-04-07T03:59:40.641Z,60.10
2019-04-07T04:02:26.457Z,54.03
2019-04-07T04:04:58.491Z,51.92
2019-04-07T04:07:40.533Z,60.47
2019-04-07T04:10:36.454Z,61.03
2019-04-07T04:13:42.292Z,61.58
2019-04-07T04:16:18.490Z,59.20
2019-04-07T04:18:46.597Z,53.20
2019-04-07T04:21:15.310Z,57.95
2019-04-07T04:23:43.568Z,59.63
2019-04-07T04:26:10.415Z,54.10
2019-04-07T04:28:39.051Z,58.78
2019-04-07T04:31:06.745Z,60.88
2019-04-07T04:33:34.823Z,55.28
2019-04-07T04:36:02.807Z,56.78
2019-04-07T04:38:30.272Z,48.10
2019-04-07T04:41:00.142Z,57.20
2019-04-07T04:43:27.920Z,50.80
2019-04-07T04:45:56.832Z,52.92
2019-04-07T04:48:24.567Z,58.15
2019-04-07T04:50:52.654Z,53.75
2019-04-07T04:53:20.710Z,55.92
2019-04-07T04:55:48.803Z,54.83
2019-04-07T04:58:17.504Z,51.50
2019-04-07T05:00:44.927Z,52.08
2019-04-07T05:03:12.801Z,52.90
2019-04-07T05:05:41.407Z,53.25
2019-04-07T05:08:09.418Z,53.65
2019-04-07T05:10:37.811Z,51.72
2019-04-07T05:13:05.777Z,59.20
2019-04-07T05:15:34.332Z,52.97
2019-04-07T05:18:02.228Z,57.15
2019-04-07T05:20:30.006Z,53.30
2019-04-07T05:22:58.645Z,56.30
2019-04-07T05:25:27.356Z,54.33
2019-04-07T05:27:54.660Z,55.47
2019-04-07T05:30:22.594Z,55.47
2019-04-07T05:32:50.773Z,49.95
2019-04-07T05:35:18.835Z,51.42
2019-04-07T05:37:46.905Z,49.88
2019-04-07T05:40:15.526Z,53.95
2019-04-07T05:42:43.349Z,49.33
2019-04-07T05:45:11.556Z,48.35
2019-04-07T05:47:43.602Z,52.65
2019-04-07T05:50:07.773Z,49.55
2019-04-07T05:52:39.571Z,48.72
2019-04-07T05:55:04.537Z,49.88
2019-04-07T05:57:34.851Z,50.83
2019-04-07T06:00:01.321Z,47.67
2019-04-07T06:02:31.280Z,48.03
2019-04-07T06:04:58.674Z,47.47
2019-04-07T06:07:28.831Z,49.97
2019-04-07T06:09:53.524Z,45.25
2019-04-07T06:12:21.598Z,45.17
2019-04-07T06:14:49.818Z,46.13
2019-04-07T06:17:17.338Z,48.58
2019-04-07T06:19:45.153Z,48.80
2019-04-07T06:22:13.433Z,44.83
2019-04-07T06:24:41.524Z,45.45
2019-04-07T06:27:09.796Z,49.25
2019-04-07T06:29:37.750Z,48.40
2019-04-07T06:32:07.259Z,50.53
2019-04-07T06:34:33.732Z,44.17
2019-04-07T06:37:01.028Z,45.20
2019-04-07T06:39:31.860Z,41.67
2019-04-07T06:42:00.431Z,43.35
2019-04-07T06:44:25.538Z,46.55
2019-04-07T06:47:11.852Z,43.78
2019-04-07T06:49:55.083Z,44.22
2019-04-07T06:52:42.055Z,42.55
2019-04-07T06:55:33.013Z,40.38
2019-04-07T06:58:27.198Z,41.10
2019-04-07T07:01:12.277Z,42.30
2019-04-07T07:04:17.961Z,40.20
2019-04-07T07:07:06.284Z,37.85
2019-04-07T07:09:59.830Z,41.53
2019-04-07T07:12:43.060Z,43.05
2019-04-07T07:15:23.373Z,42.58
2019-04-07T07:18:10.252Z,39.03
2019-04-07T07:20:48.029Z,39.25
2019-04-07T07:23:19.549Z,41.28
2019-04-07T07:25:47.562Z,38.88
2019-04-07T07:28:16.088Z,39.83
2019-04-07T07:30:43.733Z,37.88
2019-04-07T07:33:11.562Z,37.53
2019-04-07T07:35:39.926Z,39.13
2019-04-07T07:38:08.087Z,36.58
2019-04-07T07:40:35.980Z,37.05
2019-04-07T07:43:04.414Z,34.95
2019-04-07T07:45:32.933Z,36.83
2019-04-07T07:48:00.067Z,35.35
2019-04-07T07:50:28.501Z,33.35
2019-04-07T07:52:58.592Z,38.47
2019-04-07T07:55:27.398Z,37.78
2019-04-07T07:57:58.170Z,35.85
2019-04-07T08:00:22.938Z,37.25
2019-04-07T08:02:52.505Z,33.85
2019-04-07T08:05:18.841Z,38.50
2019-04-07T08:07:48.395Z,40.58
2019-04-07T08:10:14.973Z,33.53
2019-04-07T08:12:43.768Z,35.55
2019-04-07T08:15:11.669Z,35.05
2019-04-07T08:17:40.976Z,35.97
2019-04-07T08:20:11.318Z,35.67
2019-04-07T08:22:42.907Z,34.55
2019-04-07T08:25:05.299Z,35.97
2019-04-07T08:27:34.378Z,35.97
2019-04-07T08:30:02.625Z,36.28
2019-04-07T08:32:32.283Z,33.35
2019-04-07T08:35:01.462Z,34.80
2019-04-07T08:37:25.800Z,34.47
2019-04-07T08:39:56.679Z,35.92
2019-04-07T08:42:22.656Z,34.33
2019-04-07T08:44:49.912Z,35.95
2019-04-07T08:47:21.169Z,34.90
2019-04-07T08:49:45.995Z,36.65
2019-04-07T08:52:14.040Z,34.58
2019-04-07T08:54:48.874Z,36.95
2019-04-07T08:57:13.168Z,36.08
2019-04-07T08:59:42.980Z,36.67
2019-04-07T09:02:09.195Z,34.67
2019-04-07T09:04:37.283Z,34.53
2019-04-07T09:07:05.547Z,33.92
2019-04-07T09:09:36.272Z,34.40
2019-04-07T09:12:01.897Z,35.53
2019-04-07T09:14:29.536Z,34.80
2019-04-07T09:17:09.261Z,40.30
2019-04-07T09:20:10.411Z,35.72
2019-04-07T09:22:45.450Z,35.33
2019-04-07T09:25:21.419Z,34.25
2019-04-07T09:27:54.003Z,35.75
2019-04-07T09:30:40.890Z,35.50
2019-04-07T09:33:35.719Z,34.35
2019-04-07T09:36:16.973Z,34.67
2019-04-07T09:39:03.942Z,32.53
2019-04-07T09:41:55.654Z,36.10
2019-04-07T09:44:49.369Z,33.78
2019-04-07T09:47:35.827Z,36.03
2019-04-07T09:50:21.831Z,34.33
2019-04-07T09:53:07.067Z,35.08
2019-04-07T09:55:56.897Z,33.03
2019-04-07T09:58:45.379Z,32.88
2019-04-07T10:01:27.818Z,34.05
2019-04-07T10:04:12.105Z,30.58
2019-04-07T10:07:03.634Z,34.65
2019-04-07T10:10:10.307Z,33.63
2019-04-07T10:12:47.131Z,33.60
2019-04-07T10:15:29.655Z,32.65
2019-04-07T10:18:06.026Z,32.92
2019-04-07T10:20:58.876Z,31.95
2019-04-07T10:23:40.281Z,33.97
2019-04-07T10:26:32.532Z,29.90
2019-04-07T10:29:09.777Z,29.25
2019-04-07T10:31:55.437Z,27.08
2019-04-07T10:34:43.621Z,26.92
2019-04-07T10:37:42.815Z,28.55
2019-04-07T10:40:29.114Z,28.25
2019-04-07T10:43:28.177Z,24.85
2019-04-07T10:46:02.813Z,24.98
2019-04-07T10:48:38.914Z,25.98
2019-04-07T10:51:26.228Z,25.25
2019-04-07T10:54:25.427Z,26.10
2019-04-07T10:57:09.964Z,26.48
2019-04-07T10:59:41.796Z,26.12
2019-04-07T11:02:37.740Z,26.67
2019-04-07T11:05:17.490Z,27.15
2019-04-07T11:08:03.186Z,27.17
2019-04-07T11:10:48.432Z,26.23
2019-04-07T11:13:35.276Z,25.15
2019-04-07T11:16:31.308Z,21.80
2019-04-07T11:19:18.821Z,23.08
2019-04-07T11:22:14.493Z,23.75
2019-04-07T11:25:01.091Z,24.48
2019-04-07T11:27:50.439Z,24.10
2019-04-07T11:30:28.859Z,21.62
2019-04-07T11:33:01.868Z,21.65
2019-04-07T11:35:41.966Z,23.25
2019-04-07T11:38:26.719Z,22.75
2019-04-07T11:41:12.450Z,23.00
2019-04-07T11:44:14.937Z,19.77
2019-04-07T11:47:07.250Z,18.67
2019-04-07T11:49:42.644Z,18.15
2019-04-07T11:52:26.027Z,16.40
2019-04-07T11:55:11.920Z,22.52
2019-04-07T11:58:09.743Z,15.20
2019-04-07T12:00:57.119Z,15.68
2019-04-07T12:03:35.608Z,15.98
2019-04-07T12:06:31.750Z,15.63
2019-04-07T12:09:08.927Z,13.95
2019-04-07T12:11:49.380Z,13.27
2019-04-07T12:14:24.428Z,13.52
2019-04-07T12:17:15.021Z,13.70
2019-04-07T12:19:55.053Z,14.93
2019-04-07T12:22:39.341Z,18.67
2019-04-07T12:25:29.361Z,14.23
2019-04-07T12:28:30.109Z,15.05
2019-04-07T12:31:13.876Z,17.10
2019-04-07T12:33:50.652Z,16.33
2019-04-07T12:36:40.815Z,15.88
2019-04-07T12:39:26.855Z,15.35
2019-04-07T12:42:09.886Z,14.25
2019-04-07T12:44:44.122Z,17.08
2019-04-07T12:47:18.113Z,17.10
2019-04-07T12:50:06.812Z,16.27
2019-04-07T12:52:57.797Z,18.40
2019-04-07T12:56:02.451Z,16.45
2019-04-07T12:58:48.533Z,14.87
2019-04-07T13:01:47.059Z,18.33
2019-04-07T13:04:34.217Z,15.90
2019-04-07T13:07:20.625Z,16.10
2019-04-07T13:10:10.535Z,16.62
2019-04-07T13:13:03.788Z,13.23
2019-04-07T13:15:49.783Z,16.50
2019-04-07T13:18:25.518Z,15.13
2019-04-07T13:21:24.559Z,17.25
2019-04-07T13:24:12.713Z,14.35
2019-04-07T13:26:48.853Z,18.20
2019-04-07T13:29:29.125Z,17.30
2019-04-07T13:32:01.814Z,15.90
2019-04-07T13:34:57.850Z,14.35
2019-04-07T13:37:43.729Z,16.85
2019-04-07T13:40:36.463Z,17.75
2019-04-07T13:43:24.684Z,15.27
2019-04-07T13:46:17.094Z,17.25
2019-04-07T13:48:57.784Z,14.93
2019-04-07T13:51:37.172Z,16.87
2019-04-07T13:54:33.628Z,16.15
2019-04-07T13:57:26.087Z,16.35
2019-04-07T14:00:13.379Z,16.70
2019-04-07T14:02:58.780Z,17.12
2019-04-07T14:06:03.458Z,17.23
2019-04-07T14:08:41.603Z,15.43
2019-04-07T14:11:28.594Z,15.93
2019-04-07T14:14:22.211Z,16.87
2019-04-07T14:17:17.907Z,16.42
2019-04-07T14:20:08.811Z,16.98
2019-04-07T14:22:55.561Z,16.37
2019-04-07T14:25:32.032Z,16.50
2019-04-07T14:28:21.620Z,16.10
2019-04-07T14:31:14.202Z,15.27
2019-04-07T14:34:00.043Z,16.67
2019-04-07T14:36:53.562Z,15.70
2019-04-07T14:39:35.894Z,14.30
2019-04-07T14:42:41.751Z,16.27
2019-04-07T14:45:28.333Z,17.62
2019-04-07T14:48:07.463Z,15.13
2019-04-07T14:51:10.118Z,16.87
2019-04-07T14:53:55.727Z,16.98
2019-04-07T14:56:42.114Z,17.60
2019-04-07T14:59:28.463Z,16.67
2019-04-07T15:01:56.022Z,16.40
2019-04-07T15:04:24.830Z,15.77
2019-04-07T15:07:08.890Z,16.20
2019-04-07T15:09:43.938Z,16.62
2019-04-07T15:12:24.036Z,17.23
2019-04-07T15:14:49.141Z,17.33
2019-04-07T15:17:17.681Z,17.25
2019-04-07T15:19:46.190Z,18.92
2019-04-07T15:22:13.415Z,17.15
2019-04-07T15:24:42.757Z,18.60
2019-04-07T15:27:09.670Z,17.50
2019-04-07T15:29:40.792Z,17.27
2019-04-07T15:32:07.227Z,17.37
2019-04-07T15:34:35.205Z,17.00
2019-04-07T15:37:04.092Z,18.30
2019-04-07T15:39:31.209Z,18.60
2019-04-07T15:41:59.542Z,17.55
2019-04-07T15:44:27.386Z,19.92
2019-04-07T15:46:55.466Z,18.05
2019-04-07T15:49:26.234Z,18.10
2019-04-07T15:51:51.622Z,18.27
2019-04-07T15:54:22.371Z,21.37
2019-04-07T15:56:50.148Z,15.18
2019-04-07T15:59:17.936Z,15.27
2019-04-07T16:01:44.411Z,13.07
2019-04-07T16:04:12.781Z,13.77
2019-04-07T16:06:40.828Z,19.45
2019-04-07T16:09:14.104Z,16.55
2019-04-07T16:11:36.999Z,15.82
2019-04-07T16:14:12.586Z,17.58
2019-04-07T16:16:33.662Z,15.70
2019-04-07T16:19:01.977Z,15.30
2019-04-07T16:21:30.125Z,14.27
2019-04-07T16:23:58.164Z,17.12
2019-04-07T16:26:26.385Z,15.10
2019-04-07T16:28:55.178Z,13.18
2019-04-07T16:31:25.425Z,13.43
2019-04-07T16:33:51.797Z,15.50
2019-04-07T16:36:19.648Z,16.08
2019-04-07T16:38:47.022Z,17.62
2019-04-07T16:41:15.190Z,16.15
2019-04-07T16:43:43.297Z,16.23
2019-04-07T16:46:13.660Z,17.27
2019-04-07T16:48:40.269Z,16.17
2019-04-07T16:51:07.589Z,13.27
2019-04-07T16:53:37.946Z,15.10
2019-04-07T16:56:05.215Z,15.82
2019-04-07T16:58:35.306Z,17.00
2019-04-07T17:01:01.262Z,15.80
2019-04-07T17:03:29.005Z,17.30
2019-04-07T17:05:59.360Z,17.80
2019-04-07T17:08:26.691Z,16.20
2019-04-07T17:10:53.858Z,19.08
2019-04-07T17:13:31.455Z,18.10
2019-04-07T17:15:51.654Z,17.70
2019-04-07T17:18:33.319Z,17.20
2019-04-07T17:21:00.318Z,17.25
2019-04-07T17:23:29.013Z,17.35
2019-04-07T17:25:57.009Z,17.45
2019-04-07T17:28:24.623Z,18.08
2019-04-07T17:30:56.178Z,20.65
2019-04-07T17:33:21.071Z,19.25
2019-04-07T17:35:51.959Z,20.88
2019-04-07T17:38:18.287Z,19.10
2019-04-07T17:40:50.103Z,17.95
2019-04-07T17:43:35.579Z,19.12
2019-04-07T17:46:10.515Z,18.25
2019-04-07T17:48:52.502Z,17.92
2019-04-07T17:51:30.723Z,17.40
2019-04-07T17:54:19.496Z,19.02
2019-04-07T17:57:05.460Z,18.45
2019-04-07T17:59:50.433Z,19.45
2019-04-07T18:02:28.061Z,17.08
2019-04-07T18:05:12.689Z,17.73
2019-04-07T18:08:15.803Z,20.70
2019-04-07T18:11:04.342Z,21.50
2019-04-07T18:13:51.201Z,20.62
2019-04-07T18:16:36.399Z,20.08
2019-04-07T18:19:22.620Z,18.12
2019-04-07T18:22:09.209Z,18.48
2019-04-07T18:24:54.766Z,21.48
2019-04-07T18:27:26.913Z,18.05
2019-04-07T18:30:16.431Z,16.20
2019-04-07T18:33:09.831Z,19.02
2019-04-07T18:36:05.072Z,18.98
2019-04-07T18:38:45.680Z,17.52
2019-04-07T18:41:34.040Z,16.37
2019-04-07T18:44:15.162Z,15.75
2019-04-07T18:47:04.813Z,19.55
2019-04-07T18:49:50.369Z,15.95
2019-04-07T18:52:33.590Z,17.37
2019-04-07T18:55:33.285Z,16.75
2019-04-07T18:58:18.412Z,17.33
2019-04-07T19:01:07.350Z,15.82
2019-04-07T19:03:51.042Z,16.45
2019-04-07T19:06:24.765Z,15.13
2019-04-07T19:09:01.404Z,18.33
2019-04-07T19:11:50.309Z,18.50
2019-04-07T19:14:44.544Z,14.50
2019-04-07T19:17:25.938Z,16.42
2019-04-07T19:20:12.989Z,15.23
2019-04-07T19:23:11.467Z,18.75
2019-04-07T19:25:57.833Z,14.45
2019-04-07T19:28:35.706Z,17.02
2019-04-07T19:31:16.194Z,16.62
2019-04-07T19:34:04.766Z,15.77
2019-04-07T19:37:02.145Z,15.55
2019-04-07T19:39:45.672Z,18.00
2019-04-07T19:42:39.885Z,19.92
2019-04-07T19:45:35.093Z,17.95
2019-04-07T19:48:28.852Z,18.00
2019-04-07T19:51:22.533Z,15.95
2019-04-07T19:54:07.802Z,16.10
2019-04-07T19:56:46.098Z,18.48
2019-04-07T19:59:41.602Z,18.23
2019-04-07T20:02:22.594Z,16.15
2019-04-07T20:05:10.345Z,17.17
2019-04-07T20:08:02.548Z,14.57
2019-04-07T20:10:42.534Z,17.52
2019-04-07T20:13:47.129Z,14.43
2019-04-07T20:16:24.504Z,16.02
2019-04-07T20:19:15.118Z,17.85
2019-04-07T20:22:01.658Z,18.25
2019-04-07T20:24:49.159Z,17.15
2019-04-07T20:27:28.775Z,16.90
2019-04-07T20:30:28.369Z,17.73
2019-04-07T20:33:14.348Z,17.45
2019-04-07T20:35:54.363Z,16.20
2019-04-07T20:38:51.729Z,15.73
2019-04-07T20:41:26.254Z,15.95
2019-04-07T20:44:18.849Z,19.65
2019-04-07T20:47:04.599Z,17.67
2019-04-07T20:49:50.648Z,18.85
2019-04-07T20:53:07.199Z,20.62
2019-04-07T20:55:29.403Z,18.27
2019-04-07T20:58:22.046Z,15.57
2019-04-07T21:01:17.506Z,17.95
2019-04-07T21:03:57.842Z,16.17
2019-04-07T21:06:50.796Z,16.05
2019-04-07T21:09:35.813Z,15.38
2019-04-07T21:12:29.728Z,17.70
2019-04-07T21:15:30.042Z,17.12
2019-04-07T21:18:11.108Z,15.77
2019-04-07T21:20:57.493Z,16.08
2019-04-07T21:23:46.193Z,21.00
2019-04-07T21:26:37.159Z,14.52
2019-04-07T21:29:14.881Z,15.95
2019-04-07T21:31:54.647Z,16.33
2019-04-07T21:34:36.433Z,17.52
2019-04-07T21:37:13.538Z,14.38
2019-04-07T21:40:02.826Z,17.37
2019-04-07T21:42:34.550Z,16.12
2019-04-07T21:45:32.639Z,14.60
2019-04-07T21:48:03.281Z,19.00
2019-04-07T21:50:46.995Z,16.70
2019-04-07T21:53:25.720Z,19.55
2019-04-07T21:56:22.172Z,21.30
2019-04-07T21:59:07.488Z,15.02
2019-04-07T22:01:46.150Z,16.48
2019-04-07T22:04:27.342Z,19.33
2019-04-07T22:07:27.644Z,16.90
2019-04-07T22:09:59.078Z,16.73
2019-04-07T22:12:30.183Z,15.55
2019-04-07T22:14:55.552Z,16.77
2019-04-07T22:17:23.628Z,18.45
2019-04-07T22:19:51.663Z,17.95
2019-04-07T22:22:19.672Z,15.70
2019-04-07T22:24:47.739Z,19.25
2019-04-07T22:27:21.225Z,20.12
2019-04-07T22:29:43.571Z,17.10
2019-04-07T22:32:11.695Z,17.12
2019-04-07T22:34:39.992Z,15.15
2019-04-07T22:37:08.158Z,16.95
2019-04-07T22:39:36.246Z,16.52
2019-04-07T22:42:06.390Z,15.80
2019-04-07T22:44:34.167Z,17.33
2019-04-07T22:47:02.851Z,18.90
2019-04-07T22:49:32.148Z,16.37
2019-04-07T22:51:58.453Z,22.20
2019-04-07T22:54:30.181Z,17.37
2019-04-07T22:56:54.619Z,17.73
2019-04-07T22:59:22.787Z,17.80
2019-04-07T23:01:51.480Z,17.45
2019-04-07T23:04:18.929Z,19.23
2019-04-07T23:06:46.797Z,15.35
2019-04-07T23:09:15.483Z,18.60
2019-04-07T23:11:42.648Z,21.17
2019-04-07T23:14:11.528Z,16.50
2019-04-07T23:16:38.878Z,16.10
2019-04-07T23:19:06.944Z,18.33
2019-04-07T23:21:35.011Z,18.45
2019-04-07T23:24:03.803Z,16.87
2019-04-07T23:26:32.037Z,21.25
2019-04-07T23:28:59.530Z,19.25
2019-04-07T23:31:27.886Z,18.80
2019-04-07T23:33:56.535Z,18.02
2019-04-07T23:36:24.228Z,20.05
2019-04-07T23:38:52.007Z,18.33
2019-04-07T23:41:20.200Z,18.90
2019-04-07T23:43:49.351Z,18.87
2019-04-07T23:46:22.835Z,20.75
2019-04-07T23:48:45.647Z,20.20
2019-04-07T23:51:14.310Z,17.75
2019-04-07T23:54:00.161Z,22.35
2019-04-07T23:56:28.166Z,20.15
2019-04-07T23:58:56.296Z,18.10
